sensor_id;sensor_type;location;lat;lon;timestamp;pressure;altitude;pressure_sealevel;temperature;humidity
37304;BME280;23188;51.188;16.374;2024-02-26T00:01:44;99135.31;;;4.31;100.00
37304;BME280;23188;51.188;16.374;2024-02-26T00:05:45;99133.50;;;4.25;100.00
37304;BME280;23188;51.188;16.374;2024-02-26T00:09:47;99133.41;;;4.26;100.00
37304;BME280;23188;51.188;16.374;2024-02-26T00:13:49;99132.29;;;4.32;100.00
37304;BME280;23188;51.188;16.374;2024-02-26T00:17:51;99132.63;;;4.32;100.00
37304;BME280;23188;51.188;16.374;2024-02-26T00:21:53;99130.14;;;4.35;100.00
37304;BME280;23188;51.188;16.374;2024-02-26T00:25:56;99128.16;;;4.33;100.00
37304;BME280;23188;51.188;16.374;2024-02-26T00:29:58;99128.70;;;4.35;100.00
37304;BME280;23188;51.188;16.374;2024-02-26T00:34:00;99128.57;;;4.39;100.00
37304;BME280;23188;51.188;16.374;2024-02-26T00:38:02;99131.14;;;4.45;100.00
37304;BME280;23188;51.188;16.374;2024-02-26T00:42:05;99126.66;;;4.51;100.00
37304;BME280;23188;51.188;16.374;2024-02-26T00:46:06;99126.78;;;4.54;100.00
37304;BME280;23188;51.188;16.374;2024-02-26T00:50:08;99125.56;;;4.54;100.00
37304;BME280;23188;51.188;16.374;2024-02-26T00:54:10;99123.70;;;4.53;100.00
37304;BME280;23188;51.188;16.374;2024-02-26T00:58:12;99118.70;;;4.49;100.00
37304;BME280;23188;51.188;16.374;2024-02-26T01:02:14;99113.60;;;4.42;100.00
37304;BME280;23188;51.188;16.374;2024-02-26T01:06:15;99100.95;;;4.38;100.00
37304;BME280;23188;51.188;16.374;2024-02-26T01:10:17;99100.27;;;4.40;100.00
37304;BME280;23188;51.188;16.374;2024-02-26T01:14:19;99102.37;;;4.42;100.00
37304;BME280;23188;51.188;16.374;2024-02-26T01:18:41;99109.70;;;4.45;100.00
37304;BME280;23188;51.188;16.374;2024-02-26T01:22:44;99111.53;;;4.47;100.00
37304;BME280;23188;51.188;16.374;2024-02-26T01:26:45;99115.34;;;4.40;100.00
37304;BME280;23188;51.188;16.374;2024-02-26T01:30:48;99113.66;;;4.35;100.00
37304;BME280;23188;51.188;16.374;2024-02-26T01:34:50;99112.35;;;4.28;100.00
37304;BME280;23188;51.188;16.374;2024-02-26T01:38:51;99108.52;;;4.16;100.00
37304;BME280;23188;51.188;16.374;2024-02-26T01:42:53;99110.08;;;4.09;100.00
37304;BME280;23188;51.188;16.374;2024-02-26T01:46:55;99105.05;;;4.06;100.00
37304;BME280;23188;51.188;16.374;2024-02-26T01:50:57;99100.89;;;4.08;100.00
37304;BME280;23188;51.188;16.374;2024-02-26T01:54:58;99095.79;;;4.00;100.00
37304;BME280;23188;51.188;16.374;2024-02-26T01:59:03;99095.05;;;3.91;100.00
37304;BME280;23188;51.188;16.374;2024-02-26T02:03:06;99093.84;;;3.89;100.00
37304;BME280;23188;51.188;16.374;2024-02-26T02:07:08;99092.67;;;3.90;100.00
37304;BME280;23188;51.188;16.374;2024-02-26T02:11:10;99092.02;;;3.87;100.00
37304;BME280;23188;51.188;16.374;2024-02-26T02:15:13;99095.11;;;3.83;100.00
37304;BME280;23188;51.188;16.374;2024-02-26T02:19:14;99097.40;;;3.73;100.00
37304;BME280;23188;51.188;16.374;2024-02-26T02:23:16;99097.09;;;3.65;100.00
37304;BME280;23188;51.188;16.374;2024-02-26T02:27:19;99094.72;;;3.59;100.00
37304;BME280;23188;51.188;16.374;2024-02-26T02:31:22;99098.35;;;3.57;100.00
37304;BME280;23188;51.188;16.374;2024-02-26T02:35:24;99094.98;;;3.53;100.00
37304;BME280;23188;51.188;16.374;2024-02-26T02:39:26;99091.40;;;3.49;100.00
37304;BME280;23188;51.188;16.374;2024-02-26T02:43:28;99089.59;;;3.50;100.00
37304;BME280;23188;51.188;16.374;2024-02-26T02:47:30;99084.88;;;3.49;100.00
37304;BME280;23188;51.188;16.374;2024-02-26T02:51:32;99079.66;;;3.47;100.00
37304;BME280;23188;51.188;16.374;2024-02-26T02:55:33;99074.23;;;3.49;100.00
37304;BME280;23188;51.188;16.374;2024-02-26T02:59:36;99074.77;;;3.54;100.00
37304;BME280;23188;51.188;16.374;2024-02-26T03:03:38;99073.02;;;3.54;100.00
37304;BME280;23188;51.188;16.374;2024-02-26T03:07:40;99075.81;;;3.47;100.00
37304;BME280;23188;51.188;16.374;2024-02-26T03:11:41;99077.74;;;3.37;100.00
37304;BME280;23188;51.188;16.374;2024-02-26T03:15:43;99078.44;;;3.22;100.00
37304;BME280;23188;51.188;16.374;2024-02-26T03:19:45;99079.30;;;3.07;100.00
37304;BME280;23188;51.188;16.374;2024-02-26T03:23:48;99076.25;;;2.92;100.00
37304;BME280;23188;51.188;16.374;2024-02-26T03:27:50;99074.70;;;2.82;100.00
37304;BME280;23188;51.188;16.374;2024-02-26T03:31:52;99074.38;;;2.79;100.00
37304;BME280;23188;51.188;16.374;2024-02-26T03:35:53;99074.52;;;2.79;100.00
37304;BME280;23188;51.188;16.374;2024-02-26T03:39:55;99074.23;;;2.81;100.00
37304;BME280;23188;51.188;16.374;2024-02-26T03:43:58;99072.46;;;2.79;100.00
37304;BME280;23188;51.188;16.374;2024-02-26T03:48:00;99069.83;;;2.79;100.00
37304;BME280;23188;51.188;16.374;2024-02-26T03:52:02;99073.70;;;2.79;100.00
37304;BME280;23188;51.188;16.374;2024-02-26T03:56:05;99080.77;;;2.75;100.00
37304;BME280;23188;51.188;16.374;2024-02-26T04:00:07;99077.21;;;2.70;100.00
37304;BME280;23188;51.188;16.374;2024-02-26T04:04:09;99080.61;;;2.69;100.00
37304;BME280;23188;51.188;16.374;2024-02-26T04:08:10;99079.38;;;2.67;100.00
37304;BME280;23188;51.188;16.374;2024-02-26T04:12:12;99085.20;;;2.64;100.00
37304;BME280;23188;51.188;16.374;2024-02-26T04:16:14;99086.45;;;2.66;100.00
37304;BME280;23188;51.188;16.374;2024-02-26T04:20:16;99082.89;;;2.70;100.00
37304;BME280;23188;51.188;16.374;2024-02-26T04:24:18;99083.38;;;2.73;100.00
37304;BME280;23188;51.188;16.374;2024-02-26T04:28:20;99083.36;;;2.73;100.00
37304;BME280;23188;51.188;16.374;2024-02-26T04:32:22;99078.72;;;2.72;100.00
37304;BME280;23188;51.188;16.374;2024-02-26T04:36:24;99085.71;;;2.69;100.00
37304;BME280;23188;51.188;16.374;2024-02-26T04:40:27;99084.33;;;2.69;100.00
37304;BME280;23188;51.188;16.374;2024-02-26T04:44:29;99081.29;;;2.70;100.00
37304;BME280;23188;51.188;16.374;2024-02-26T04:48:31;99082.47;;;2.73;100.00
37304;BME280;23188;51.188;16.374;2024-02-26T04:52:33;99088.71;;;2.80;100.00
37304;BME280;23188;51.188;16.374;2024-02-26T04:56:35;99081.88;;;2.85;100.00
37304;BME280;23188;51.188;16.374;2024-02-26T05:00:37;99078.92;;;2.92;100.00
37304;BME280;23188;51.188;16.374;2024-02-26T05:04:39;99081.57;;;2.94;100.00
37304;BME280;23188;51.188;16.374;2024-02-26T05:08:41;99080.90;;;2.83;100.00
37304;BME280;23188;51.188;16.374;2024-02-26T05:12:46;99076.60;;;2.80;100.00
37304;BME280;23188;51.188;16.374;2024-02-26T05:16:47;99077.40;;;2.81;100.00
37304;BME280;23188;51.188;16.374;2024-02-26T05:20:49;99077.95;;;2.78;100.00
37304;BME280;23188;51.188;16.374;2024-02-26T05:24:51;99078.46;;;2.73;100.00
37304;BME280;23188;51.188;16.374;2024-02-26T05:28:53;99077.46;;;2.69;100.00
37304;BME280;23188;51.188;16.374;2024-02-26T05:33:00;99083.76;;;2.72;100.00
37304;BME280;23188;51.188;16.374;2024-02-26T05:37:02;99088.13;;;2.78;100.00
37304;BME280;23188;51.188;16.374;2024-02-26T05:41:04;99093.83;;;2.84;100.00
37304;BME280;23188;51.188;16.374;2024-02-26T05:45:07;99097.56;;;2.88;100.00
37304;BME280;23188;51.188;16.374;2024-02-26T05:49:09;99096.78;;;2.94;100.00
37304;BME280;23188;51.188;16.374;2024-02-26T05:53:11;99100.59;;;2.90;100.00
37304;BME280;23188;51.188;16.374;2024-02-26T05:57:13;99095.15;;;2.88;100.00
37304;BME280;23188;51.188;16.374;2024-02-26T06:01:16;99098.91;;;2.83;100.00
37304;BME280;23188;51.188;16.374;2024-02-26T06:05:21;99101.28;;;2.82;100.00
37304;BME280;23188;51.188;16.374;2024-02-26T06:09:22;99097.55;;;2.81;100.00
37304;BME280;23188;51.188;16.374;2024-02-26T06:13:24;99094.84;;;2.82;100.00
37304;BME280;23188;51.188;16.374;2024-02-26T06:17:27;99097.67;;;2.84;100.00
37304;BME280;23188;51.188;16.374;2024-02-26T06:21:29;99097.15;;;2.92;100.00
37304;BME280;23188;51.188;16.374;2024-02-26T06:25:31;99101.96;;;3.03;100.00
37304;BME280;23188;51.188;16.374;2024-02-26T06:29:33;99107.88;;;3.14;100.00
37304;BME280;23188;51.188;16.374;2024-02-26T06:33:34;99110.88;;;3.21;100.00
37304;BME280;23188;51.188;16.374;2024-02-26T06:37:36;99109.88;;;3.25;100.00
37304;BME280;23188;51.188;16.374;2024-02-26T06:41:38;99117.42;;;3.28;100.00
37304;BME280;23188;51.188;16.374;2024-02-26T06:45:41;99117.52;;;3.29;100.00
37304;BME280;23188;51.188;16.374;2024-02-26T06:49:43;99115.10;;;3.39;100.00
37304;BME280;23188;51.188;16.374;2024-02-26T06:53:45;99117.02;;;3.54;100.00
37304;BME280;23188;51.188;16.374;2024-02-26T06:57:47;99120.79;;;3.77;100.00
37304;BME280;23188;51.188;16.374;2024-02-26T07:01:49;99126.65;;;4.08;100.00
37304;BME280;23188;51.188;16.374;2024-02-26T07:05:51;99126.80;;;4.32;100.00
37304;BME280;23188;51.188;16.374;2024-02-26T07:09:55;99133.90;;;4.43;100.00
37304;BME280;23188;51.188;16.374;2024-02-26T07:13:57;99138.11;;;4.50;100.00
37304;BME280;23188;51.188;16.374;2024-02-26T07:17:59;99146.23;;;4.47;100.00
37304;BME280;23188;51.188;16.374;2024-02-26T07:22:04;99139.20;;;4.52;100.00
37304;BME280;23188;51.188;16.374;2024-02-26T07:26:07;99139.42;;;4.47;100.00
37304;BME280;23188;51.188;16.374;2024-02-26T07:30:10;99139.52;;;4.50;100.00
37304;BME280;23188;51.188;16.374;2024-02-26T07:34:12;99141.15;;;4.42;100.00
37304;BME280;23188;51.188;16.374;2024-02-26T07:38:14;99142.04;;;4.61;100.00
37304;BME280;23188;51.188;16.374;2024-02-26T07:42:32;99145.10;;;4.84;100.00
37304;BME280;23188;51.188;16.374;2024-02-26T07:46:34;99150.44;;;5.11;100.00
37304;BME280;23188;51.188;16.374;2024-02-26T07:50:36;99148.75;;;5.28;100.00
37304;BME280;23188;51.188;16.374;2024-02-26T07:54:38;99149.52;;;5.41;100.00
37304;BME280;23188;51.188;16.374;2024-02-26T07:58:40;99145.19;;;5.67;100.00
37304;BME280;23188;51.188;16.374;2024-02-26T08:02:42;99149.55;;;5.92;100.00
37304;BME280;23188;51.188;16.374;2024-02-26T08:06:45;99147.77;;;6.15;100.00
37304;BME280;23188;51.188;16.374;2024-02-26T08:10:47;99149.58;;;6.25;100.00
37304;BME280;23188;51.188;16.374;2024-02-26T08:14:49;99149.40;;;6.42;100.00
37304;BME280;23188;51.188;16.374;2024-02-26T08:18:50;99146.05;;;6.44;100.00
37304;BME280;23188;51.188;16.374;2024-02-26T08:22:52;99142.86;;;6.70;100.00
37304;BME280;23188;51.188;16.374;2024-02-26T08:26:54;99138.20;;;6.63;100.00
37304;BME280;23188;51.188;16.374;2024-02-26T08:30:56;99136.52;;;6.79;100.00
37304;BME280;23188;51.188;16.374;2024-02-26T08:34:58;99141.76;;;6.92;100.00
37304;BME280;23188;51.188;16.374;2024-02-26T08:39:00;99145.17;;;7.12;100.00
37304;BME280;23188;51.188;16.374;2024-02-26T08:43:02;99143.52;;;7.40;100.00
37304;BME280;23188;51.188;16.374;2024-02-26T08:47:04;99144.55;;;7.65;100.00
37304;BME280;23188;51.188;16.374;2024-02-26T08:51:07;99140.09;;;7.77;100.00
37304;BME280;23188;51.188;16.374;2024-02-26T08:55:08;99133.56;;;7.85;100.00
37304;BME280;23188;51.188;16.374;2024-02-26T08:59:10;99125.58;;;8.08;100.00
37304;BME280;23188;51.188;16.374;2024-02-26T09:03:12;99121.98;;;8.30;100.00
37304;BME280;23188;51.188;16.374;2024-02-26T09:07:14;99120.73;;;8.56;100.00
37304;BME280;23188;51.188;16.374;2024-02-26T09:11:16;99115.77;;;8.79;100.00
37304;BME280;23188;51.188;16.374;2024-02-26T09:15:18;99113.12;;;9.00;100.00
37304;BME280;23188;51.188;16.374;2024-02-26T09:19:20;99110.48;;;9.21;100.00
37304;BME280;23188;51.188;16.374;2024-02-26T09:23:22;99111.23;;;9.39;100.00
37304;BME280;23188;51.188;16.374;2024-02-26T09:27:23;99120.34;;;9.57;100.00
37304;BME280;23188;51.188;16.374;2024-02-26T09:31:25;99122.06;;;9.71;100.00
37304;BME280;23188;51.188;16.374;2024-02-26T09:35:27;99121.79;;;9.94;100.00
37304;BME280;23188;51.188;16.374;2024-02-26T09:39:29;99125.92;;;10.17;100.00
37304;BME280;23188;51.188;16.374;2024-02-26T09:43:35;99126.97;;;10.30;100.00
37304;BME280;23188;51.188;16.374;2024-02-26T09:47:42;99132.43;;;10.48;100.00
37304;BME280;23188;51.188;16.374;2024-02-26T09:51:43;99127.00;;;10.64;100.00
37304;BME280;23188;51.188;16.374;2024-02-26T09:55:45;99127.90;;;10.88;100.00
37304;BME280;23188;51.188;16.374;2024-02-26T09:59:49;99126.17;;;11.11;100.00
37304;BME280;23188;51.188;16.374;2024-02-26T10:03:56;99125.08;;;11.30;99.93
37304;BME280;23188;51.188;16.374;2024-02-26T10:07:59;99124.57;;;11.51;99.29
37304;BME280;23188;51.188;16.374;2024-02-26T10:12:04;99126.08;;;11.64;98.87
37304;BME280;23188;51.188;16.374;2024-02-26T10:16:06;99120.95;;;11.74;96.63
37304;BME280;23188;51.188;16.374;2024-02-26T10:20:17;99117.81;;;11.82;97.05
37304;BME280;23188;51.188;16.374;2024-02-26T10:24:19;99124.02;;;11.87;95.17
37304;BME280;23188;51.188;16.374;2024-02-26T10:28:22;99123.64;;;11.87;94.48
37304;BME280;23188;51.188;16.374;2024-02-26T10:32:24;99124.73;;;11.92;94.83
37304;BME280;23188;51.188;16.374;2024-02-26T10:36:26;99119.30;;;11.98;93.95
37304;BME280;23188;51.188;16.374;2024-02-26T10:40:39;99120.13;;;12.00;94.19
37304;BME280;23188;51.188;16.374;2024-02-26T10:44:41;99118.10;;;11.94;93.42
37304;BME280;23188;51.188;16.374;2024-02-26T10:48:51;99121.52;;;11.83;93.93
37304;BME280;23188;51.188;16.374;2024-02-26T10:52:55;99113.25;;;11.83;93.94
37304;BME280;23188;51.188;16.374;2024-02-26T10:56:57;99108.60;;;11.92;95.44
37304;BME280;23188;51.188;16.374;2024-02-26T11:01:00;99108.51;;;11.98;95.88
37304;BME280;23188;51.188;16.374;2024-02-26T11:05:03;99106.82;;;11.86;95.90
37304;BME280;23188;51.188;16.374;2024-02-26T11:09:06;99109.27;;;11.90;97.31
37304;BME280;23188;51.188;16.374;2024-02-26T11:13:12;99101.02;;;11.94;97.67
37304;BME280;23188;51.188;16.374;2024-02-26T11:17:16;99100.73;;;12.08;94.99
37304;BME280;23188;51.188;16.374;2024-02-26T11:21:21;99095.15;;;12.23;95.04
37304;BME280;23188;51.188;16.374;2024-02-26T11:25:39;99087.21;;;12.29;94.29
37304;BME280;23188;51.188;16.374;2024-02-26T11:29:44;99085.91;;;12.38;94.89
37304;BME280;23188;51.188;16.374;2024-02-26T11:33:49;99087.41;;;12.31;92.26
37304;BME280;23188;51.188;16.374;2024-02-26T11:37:56;99087.74;;;12.23;90.94
37304;BME280;23188;51.188;16.374;2024-02-26T11:42:05;99090.19;;;12.22;92.36
37304;BME280;23188;51.188;16.374;2024-02-26T11:46:25;99087.68;;;12.23;93.50
37304;BME280;23188;51.188;16.374;2024-02-26T11:50:40;99089.78;;;12.25;94.42
37304;BME280;23188;51.188;16.374;2024-02-26T11:54:50;99090.67;;;12.27;95.01
37304;BME280;23188;51.188;16.374;2024-02-26T11:58:57;99087.04;;;12.29;96.04
37304;BME280;23188;51.188;16.374;2024-02-26T12:03:00;99086.11;;;12.28;96.08
37304;BME280;23188;51.188;16.374;2024-02-26T12:07:05;99087.21;;;12.34;97.08
37304;BME280;23188;51.188;16.374;2024-02-26T12:11:14;99083.32;;;12.41;97.54
37304;BME280;23188;51.188;16.374;2024-02-26T12:15:17;99084.27;;;12.50;97.06
37304;BME280;23188;51.188;16.374;2024-02-26T12:19:21;99082.77;;;12.57;96.27
37304;BME280;23188;51.188;16.374;2024-02-26T12:23:24;99080.95;;;12.66;95.36
37304;BME280;23188;51.188;16.374;2024-02-26T12:27:25;99083.65;;;12.69;94.53
37304;BME280;23188;51.188;16.374;2024-02-26T12:31:27;99083.98;;;12.76;95.24
37304;BME280;23188;51.188;16.374;2024-02-26T12:35:30;99085.69;;;12.91;95.49
37304;BME280;23188;51.188;16.374;2024-02-26T12:39:33;99089.82;;;13.02;95.81
37304;BME280;23188;51.188;16.374;2024-02-26T12:43:35;99092.55;;;13.08;94.43
37304;BME280;23188;51.188;16.374;2024-02-26T12:47:38;99088.47;;;13.09;92.64
37304;BME280;23188;51.188;16.374;2024-02-26T12:51:40;99090.63;;;13.11;92.44
37304;BME280;23188;51.188;16.374;2024-02-26T12:55:43;99087.63;;;13.20;91.05
37304;BME280;23188;51.188;16.374;2024-02-26T12:59:45;99084.58;;;13.25;89.54
37304;BME280;23188;51.188;16.374;2024-02-26T13:03:49;99083.81;;;13.31;88.21
37304;BME280;23188;51.188;16.374;2024-02-26T13:07:51;99088.02;;;13.36;88.47
37304;BME280;23188;51.188;16.374;2024-02-26T13:11:55;99090.48;;;13.39;88.30
37304;BME280;23188;51.188;16.374;2024-02-26T13:16:05;99092.30;;;13.46;88.44
37304;BME280;23188;51.188;16.374;2024-02-26T13:20:09;99096.47;;;13.53;87.98
37304;BME280;23188;51.188;16.374;2024-02-26T13:24:13;99095.10;;;13.61;88.17
37304;BME280;23188;51.188;16.374;2024-02-26T13:28:17;99097.80;;;13.68;87.62
37304;BME280;23188;51.188;16.374;2024-02-26T13:32:20;99098.21;;;13.77;87.74
37304;BME280;23188;51.188;16.374;2024-02-26T13:36:23;99097.38;;;13.86;86.93
37304;BME280;23188;51.188;16.374;2024-02-26T13:40:25;99099.63;;;13.95;85.39
37304;BME280;23188;51.188;16.374;2024-02-26T13:44:27;99098.38;;;14.01;84.56
37304;BME280;23188;51.188;16.374;2024-02-26T13:48:28;99093.26;;;14.06;83.96
37304;BME280;23188;51.188;16.374;2024-02-26T13:52:30;99095.23;;;14.11;83.51
37304;BME280;23188;51.188;16.374;2024-02-26T13:56:34;99095.05;;;14.12;80.89
37304;BME280;23188;51.188;16.374;2024-02-26T14:00:36;99093.88;;;14.09;79.79
37304;BME280;23188;51.188;16.374;2024-02-26T14:04:38;99101.15;;;14.06;81.03
37304;BME280;23188;51.188;16.374;2024-02-26T14:08:40;99100.95;;;14.02;81.27
37304;BME280;23188;51.188;16.374;2024-02-26T14:12:42;99098.45;;;14.00;80.98
37304;BME280;23188;51.188;16.374;2024-02-26T14:16:44;99098.70;;;14.03;81.50
37304;BME280;23188;51.188;16.374;2024-02-26T14:20:46;99104.47;;;14.04;81.69
37304;BME280;23188;51.188;16.374;2024-02-26T14:24:48;99104.24;;;14.09;82.43
37304;BME280;23188;51.188;16.374;2024-02-26T14:28:49;99103.98;;;14.15;83.30
37304;BME280;23188;51.188;16.374;2024-02-26T14:32:51;99109.52;;;14.22;83.51
37304;BME280;23188;51.188;16.374;2024-02-26T14:36:53;99110.34;;;14.25;83.12
37304;BME280;23188;51.188;16.374;2024-02-26T14:40:55;99107.40;;;14.29;83.74
37304;BME280;23188;51.188;16.374;2024-02-26T14:44:57;99107.61;;;14.32;83.61
37304;BME280;23188;51.188;16.374;2024-02-26T14:48:59;99105.69;;;14.33;83.03
37304;BME280;23188;51.188;16.374;2024-02-26T14:53:01;99111.77;;;14.30;82.26
37304;BME280;23188;51.188;16.374;2024-02-26T14:57:04;99114.45;;;14.25;82.21
37304;BME280;23188;51.188;16.374;2024-02-26T15:01:07;99116.19;;;14.18;82.03
37304;BME280;23188;51.188;16.374;2024-02-26T15:05:09;99110.59;;;14.07;82.48
37304;BME280;23188;51.188;16.374;2024-02-26T15:09:12;99114.44;;;13.97;83.09
37304;BME280;23188;51.188;16.374;2024-02-26T15:13:14;99123.41;;;13.87;83.08
37304;BME280;23188;51.188;16.374;2024-02-26T15:17:17;99118.70;;;13.77;83.22
37304;BME280;23188;51.188;16.374;2024-02-26T15:21:19;99119.71;;;13.66;83.26
37304;BME280;23188;51.188;16.374;2024-02-26T15:25:20;99124.52;;;13.59;83.70
37304;BME280;23188;51.188;16.374;2024-02-26T15:29:22;99126.11;;;13.51;83.56
37304;BME280;23188;51.188;16.374;2024-02-26T15:33:24;99129.73;;;13.44;83.83
37304;BME280;23188;51.188;16.374;2024-02-26T15:37:26;99134.17;;;13.39;83.85
37304;BME280;23188;51.188;16.374;2024-02-26T15:41:28;99136.56;;;13.30;84.65
37304;BME280;23188;51.188;16.374;2024-02-26T15:45:30;99143.73;;;13.20;84.89
37304;BME280;23188;51.188;16.374;2024-02-26T15:49:34;99147.99;;;13.10;85.20
37304;BME280;23188;51.188;16.374;2024-02-26T15:53:36;99151.09;;;13.04;85.37
37304;BME280;23188;51.188;16.374;2024-02-26T15:57:38;99160.87;;;12.98;85.55
37304;BME280;23188;51.188;16.374;2024-02-26T16:01:42;99167.81;;;12.92;86.71
37304;BME280;23188;51.188;16.374;2024-02-26T16:05:46;99167.35;;;12.86;87.74
37304;BME280;23188;51.188;16.374;2024-02-26T16:09:54;99172.45;;;12.67;90.55
37304;BME280;23188;51.188;16.374;2024-02-26T16:14:26;99176.71;;;12.37;92.58
37304;BME280;23188;51.188;16.374;2024-02-26T16:18:35;99179.36;;;12.12;95.87
37304;BME280;23188;51.188;16.374;2024-02-26T16:22:37;99181.42;;;11.97;98.20
37304;BME280;23188;51.188;16.374;2024-02-26T16:26:39;99184.85;;;11.83;97.51
37304;BME280;23188;51.188;16.374;2024-02-26T16:30:41;99180.59;;;11.81;96.38
37304;BME280;23188;51.188;16.374;2024-02-26T16:34:43;99185.71;;;11.88;96.42
37304;BME280;23188;51.188;16.374;2024-02-26T16:38:45;99183.14;;;11.91;96.95
37304;BME280;23188;51.188;16.374;2024-02-26T16:42:46;99183.82;;;11.81;97.74
37304;BME280;23188;51.188;16.374;2024-02-26T16:46:48;99194.55;;;11.68;97.54
37304;BME280;23188;51.188;16.374;2024-02-26T16:50:50;99198.30;;;11.59;98.24
37304;BME280;23188;51.188;16.374;2024-02-26T16:54:54;99202.77;;;11.52;99.73
37304;BME280;23188;51.188;16.374;2024-02-26T16:58:56;99205.64;;;11.41;100.00
37304;BME280;23188;51.188;16.374;2024-02-26T17:02:58;99213.66;;;11.32;100.00
37304;BME280;23188;51.188;16.374;2024-02-26T17:07:02;99217.09;;;11.21;100.00
37304;BME280;23188;51.188;16.374;2024-02-26T17:11:03;99222.37;;;11.19;100.00
37304;BME280;23188;51.188;16.374;2024-02-26T17:15:06;99222.91;;;11.16;100.00
37304;BME280;23188;51.188;16.374;2024-02-26T17:19:07;99227.30;;;11.14;100.00
37304;BME280;23188;51.188;16.374;2024-02-26T17:23:09;99234.20;;;11.11;100.00
37304;BME280;23188;51.188;16.374;2024-02-26T17:27:13;99235.52;;;11.08;100.00
37304;BME280;23188;51.188;16.374;2024-02-26T17:31:15;99244.30;;;11.01;100.00
37304;BME280;23188;51.188;16.374;2024-02-26T17:35:19;99253.15;;;10.93;100.00
37304;BME280;23188;51.188;16.374;2024-02-26T17:39:21;99257.88;;;10.94;100.00
37304;BME280;23188;51.188;16.374;2024-02-26T17:43:22;99263.50;;;10.98;100.00
37304;BME280;23188;51.188;16.374;2024-02-26T17:47:24;99268.38;;;10.97;100.00
37304;BME280;23188;51.188;16.374;2024-02-26T17:51:26;99268.58;;;10.97;100.00
37304;BME280;23188;51.188;16.374;2024-02-26T17:55:28;99270.71;;;10.94;100.00
37304;BME280;23188;51.188;16.374;2024-02-26T17:59:30;99280.04;;;10.91;100.00
37304;BME280;23188;51.188;16.374;2024-02-26T18:03:33;99285.20;;;10.87;100.00
37304;BME280;23188;51.188;16.374;2024-02-26T18:07:35;99289.47;;;10.78;100.00
37304;BME280;23188;51.188;16.374;2024-02-26T18:11:37;99290.06;;;10.68;100.00
37304;BME280;23188;51.188;16.374;2024-02-26T18:15:39;99291.62;;;10.57;100.00
37304;BME280;23188;51.188;16.374;2024-02-26T18:19:41;99290.91;;;10.54;100.00
37304;BME280;23188;51.188;16.374;2024-02-26T18:23:43;99296.42;;;10.50;100.00
37304;BME280;23188;51.188;16.374;2024-02-26T18:27:45;99296.67;;;10.40;100.00
37304;BME280;23188;51.188;16.374;2024-02-26T18:31:47;99301.58;;;10.29;100.00
37304;BME280;23188;51.188;16.374;2024-02-26T18:35:49;99301.66;;;10.23;100.00
37304;BME280;23188;51.188;16.374;2024-02-26T18:39:52;99297.32;;;10.08;100.00
37304;BME280;23188;51.188;16.374;2024-02-26T18:43:55;99297.80;;;10.00;100.00
37304;BME280;23188;51.188;16.374;2024-02-26T18:47:57;99304.80;;;9.99;100.00
37304;BME280;23188;51.188;16.374;2024-02-26T18:51:59;99302.91;;;9.96;100.00
37304;BME280;23188;51.188;16.374;2024-02-26T18:56:01;99305.64;;;9.92;100.00
37304;BME280;23188;51.188;16.374;2024-02-26T19:00:04;99305.36;;;9.83;100.00
37304;BME280;23188;51.188;16.374;2024-02-26T19:04:06;99311.50;;;9.80;100.00
37304;BME280;23188;51.188;16.374;2024-02-26T19:08:09;99312.29;;;9.75;100.00
37304;BME280;23188;51.188;16.374;2024-02-26T19:12:11;99313.59;;;9.69;100.00
37304;BME280;23188;51.188;16.374;2024-02-26T19:16:12;99320.34;;;9.65;100.00
37304;BME280;23188;51.188;16.374;2024-02-26T19:20:18;99322.45;;;9.59;100.00
37304;BME280;23188;51.188;16.374;2024-02-26T19:24:21;99329.08;;;9.56;100.00
37304;BME280;23188;51.188;16.374;2024-02-26T19:28:23;99333.98;;;9.53;100.00
37304;BME280;23188;51.188;16.374;2024-02-26T19:32:25;99333.39;;;9.50;100.00
37304;BME280;23188;51.188;16.374;2024-02-26T19:36:26;99338.60;;;9.47;100.00
37304;BME280;23188;51.188;16.374;2024-02-26T19:40:28;99336.01;;;9.41;100.00
37304;BME280;23188;51.188;16.374;2024-02-26T19:44:30;99337.74;;;9.36;100.00
37304;BME280;23188;51.188;16.374;2024-02-26T19:48:32;99332.55;;;9.26;100.00
37304;BME280;23188;51.188;16.374;2024-02-26T19:52:35;99331.66;;;9.17;100.00
37304;BME280;23188;51.188;16.374;2024-02-26T19:56:36;99334.77;;;9.11;100.00
37304;BME280;23188;51.188;16.374;2024-02-26T20:00:38;99338.95;;;9.05;100.00
37304;BME280;23188;51.188;16.374;2024-02-26T20:04:41;99336.75;;;8.95;100.00
37304;BME280;23188;51.188;16.374;2024-02-26T20:08:42;99337.18;;;8.84;100.00
37304;BME280;23188;51.188;16.374;2024-02-26T20:12:44;99344.17;;;8.75;100.00
37304;BME280;23188;51.188;16.374;2024-02-26T20:16:47;99344.92;;;8.69;100.00
37304;BME280;23188;51.188;16.374;2024-02-26T20:20:49;99343.25;;;8.70;100.00
37304;BME280;23188;51.188;16.374;2024-02-26T20:24:51;99343.20;;;8.60;100.00
37304;BME280;23188;51.188;16.374;2024-02-26T20:28:53;99344.40;;;8.57;100.00
37304;BME280;23188;51.188;16.374;2024-02-26T20:32:55;99346.21;;;8.58;100.00
37304;BME280;23188;51.188;16.374;2024-02-26T20:36:57;99354.19;;;8.56;100.00
37304;BME280;23188;51.188;16.374;2024-02-26T20:40:59;99367.31;;;8.43;100.00
37304;BME280;23188;51.188;16.374;2024-02-26T20:45:00;99365.77;;;8.28;100.00
37304;BME280;23188;51.188;16.374;2024-02-26T20:49:02;99372.75;;;8.23;100.00
37304;BME280;23188;51.188;16.374;2024-02-26T20:53:04;99382.39;;;8.17;100.00
37304;BME280;23188;51.188;16.374;2024-02-26T20:57:07;99379.38;;;8.11;100.00
37304;BME280;23188;51.188;16.374;2024-02-26T21:01:10;99384.95;;;8.08;100.00
37304;BME280;23188;51.188;16.374;2024-02-26T21:05:13;99388.23;;;7.98;100.00